createdAt,value
2022-09-07T00:01:08.514Z,18.60
2022-09-07T00:03:37.404Z,18.58
2022-09-07T00:06:08.268Z,18.62
2022-09-07T00:08:36.948Z,18.66
2022-09-07T00:11:13.088Z,18.58
2022-09-07T00:13:43.143Z,18.50
2022-09-07T00:16:15.194Z,18.47
2022-09-07T00:18:46.256Z,18.44
2022-09-07T00:21:16.871Z,18.40
2022-09-07T00:23:45.800Z,18.41
2022-09-07T00:26:15.831Z,18.39
2022-09-07T00:28:44.537Z,18.34
2022-09-07T00:31:16.573Z,18.28
2022-09-07T00:33:45.700Z,18.28
2022-09-07T00:36:13.915Z,18.26
2022-09-07T00:38:42.315Z,18.24
2022-09-07T00:41:11.080Z,18.22
2022-09-07T00:43:42.083Z,18.21
2022-09-07T00:46:16.039Z,18.20
2022-09-07T00:48:46.892Z,18.21
2022-09-07T00:51:19.039Z,18.22
2022-09-07T00:53:53.767Z,18.26
2022-09-07T00:56:25.149Z,18.24
2022-09-07T00:58:54.171Z,18.26
2022-09-07T01:01:24.186Z,18.31
2022-09-07T01:03:54.939Z,18.29
2022-09-07T01:06:27.664Z,18.29
2022-09-07T01:08:58.083Z,18.21
2022-09-07T01:11:26.368Z,18.18
2022-09-07T01:13:58.098Z,18.14
2022-09-07T01:16:42.957Z,18.09
2022-09-07T01:19:45.823Z,18.06
2022-09-07T01:22:42.640Z,17.98
2022-09-07T01:25:12.125Z,17.92
2022-09-07T01:28:04.529Z,17.92
2022-09-07T01:30:36.495Z,17.93
2022-09-07T01:33:20.384Z,17.93
2022-09-07T01:35:56.519Z,17.89
2022-09-07T01:38:33.025Z,17.88
2022-09-07T01:41:06.390Z,17.86
2022-09-07T01:43:42.701Z,17.82
2022-09-07T01:46:17.683Z,17.79
2022-09-07T01:48:49.704Z,17.73
2022-09-07T01:51:20.497Z,17.69
2022-09-07T01:53:54.141Z,17.64
2022-09-07T01:56:28.524Z,17.61
2022-09-07T01:59:01.681Z,17.60
2022-09-07T02:01:33.287Z,17.57
2022-09-07T02:04:07.323Z,17.54
2022-09-07T02:06:38.639Z,17.53
2022-09-07T02:09:12.396Z,17.48
2022-09-07T02:11:43.955Z,17.49
2022-09-07T02:14:20.780Z,17.50
2022-09-07T02:16:56.558Z,17.50
2022-09-07T02:19:28.233Z,17.49
2022-09-07T02:22:00.913Z,17.50
2022-09-07T02:24:33.901Z,17.43
2022-09-07T02:27:08.523Z,17.40
2022-09-07T02:29:38.552Z,17.36
2022-09-07T02:32:07.301Z,17.35
2022-09-07T02:34:35.546Z,17.33
2022-09-07T02:37:09.021Z,17.30
2022-09-07T02:39:37.352Z,17.30
2022-09-07T02:42:06.061Z,17.28
2022-09-07T02:44:40.656Z,17.28
2022-09-07T02:47:25.492Z,17.26
2022-09-07T02:50:09.196Z,17.22
2022-09-07T02:52:45.564Z,17.21
2022-09-07T02:55:27.134Z,17.17
2022-09-07T02:58:04.610Z,17.16
2022-09-07T03:00:41.685Z,17.16
2022-09-07T03:03:16.897Z,17.15
2022-09-07T03:05:50.390Z,17.16
2022-09-07T03:08:22.658Z,17.17
2022-09-07T03:10:51.990Z,17.16
2022-09-07T03:13:25.322Z,17.15
2022-09-07T03:15:56.416Z,17.12
2022-09-07T03:18:24.870Z,17.14
2022-09-07T03:20:53.290Z,17.14
2022-09-07T03:23:21.547Z,17.10
2022-09-07T03:25:50.077Z,17.11
2022-09-07T03:28:18.443Z,17.09
2022-09-07T03:30:47.520Z,17.09
2022-09-07T03:33:18.431Z,17.06
2022-09-07T03:35:47.981Z,17.02
2022-09-07T03:38:16.213Z,17.02
2022-09-07T03:40:44.376Z,17.04
2022-09-07T03:43:12.594Z,17.05
2022-09-07T03:45:41.556Z,17.04
2022-09-07T03:48:14.003Z,17.03
2022-09-07T03:50:43.641Z,17.05
2022-09-07T03:53:12.078Z,17.06
2022-09-07T03:55:40.222Z,17.04
2022-09-07T03:58:08.420Z,17.04
2022-09-07T04:00:36.664Z,17.04
2022-09-07T04:03:04.957Z,17.06
2022-09-07T04:05:33.920Z,17.06
2022-09-07T04:08:04.080Z,17.09
2022-09-07T04:10:32.353Z,17.08
2022-09-07T04:13:00.635Z,17.07
2022-09-07T04:15:30.438Z,17.09
2022-09-07T04:17:58.668Z,17.10
2022-09-07T04:20:26.854Z,17.11
2022-09-07T04:22:55.413Z,17.13
2022-09-07T04:25:25.043Z,17.17
2022-09-07T04:27:53.281Z,17.22
2022-09-07T04:30:21.485Z,17.28
2022-09-07T04:32:49.678Z,17.29
2022-09-07T04:35:18.004Z,17.33
2022-09-07T04:37:46.386Z,17.34
2022-09-07T04:40:14.618Z,17.38
2022-09-07T04:42:44.253Z,17.36
2022-09-07T04:45:13.091Z,17.37
2022-09-07T04:47:41.251Z,17.36
2022-09-07T04:50:10.618Z,17.38
2022-09-07T04:52:38.848Z,17.39
2022-09-07T04:55:07.788Z,17.43
2022-09-07T04:57:36.254Z,17.45
2022-09-07T05:00:09.346Z,17.47
2022-09-07T05:02:39.116Z,17.51
2022-09-07T05:05:08.216Z,17.52
2022-09-07T05:07:36.466Z,17.55
2022-09-07T05:10:05.368Z,17.61
2022-09-07T05:12:33.585Z,17.68
2022-09-07T05:15:01.762Z,17.71
2022-09-07T05:17:32.323Z,17.75
2022-09-07T05:20:00.473Z,17.80
2022-09-07T05:22:28.655Z,17.83
2022-09-07T05:24:57.488Z,17.94
2022-09-07T05:27:25.714Z,18.01
2022-09-07T05:30:02.051Z,18.05
2022-09-07T05:32:33.025Z,18.11
2022-09-07T05:35:01.291Z,18.15
2022-09-07T05:37:29.549Z,18.21
2022-09-07T05:39:58.451Z,18.21
2022-09-07T05:42:26.837Z,18.27
2022-09-07T05:44:55.234Z,18.38
2022-09-07T05:47:23.445Z,18.41
2022-09-07T05:49:57.092Z,18.46
2022-09-07T05:52:25.535Z,18.54
2022-09-07T05:54:56.639Z,18.60
2022-09-07T05:57:36.004Z,18.75
2022-09-07T06:00:05.840Z,18.84
2022-09-07T06:02:40.856Z,18.91
2022-09-07T06:05:12.398Z,19.02
2022-09-07T06:07:40.811Z,19.09
2022-09-07T06:12:59.340Z,19.22
2022-09-07T06:15:27.528Z,19.24
2022-09-07T06:17:55.778Z,19.31
2022-09-07T06:20:25.491Z,19.33
2022-09-07T06:22:54.191Z,19.36
2022-09-07T06:25:22.520Z,19.41
2022-09-07T06:27:52.090Z,19.45
2022-09-07T06:30:20.318Z,19.57
2022-09-07T06:32:49.008Z,19.66
2022-09-07T06:35:17.405Z,19.66
2022-09-07T06:37:47.096Z,19.73
2022-09-07T06:40:15.638Z,19.82
2022-09-07T06:42:43.911Z,19.85
2022-09-07T06:45:13.013Z,19.90
2022-09-07T06:47:41.476Z,20.00
2022-09-07T06:50:12.499Z,20.04
2022-09-07T06:55:30.537Z,20.21
2022-09-07T06:57:58.862Z,20.27
2022-09-07T07:00:27.044Z,20.35
2022-09-07T07:02:55.274Z,20.32
2022-09-07T07:05:23.643Z,20.37
2022-09-07T07:07:51.823Z,20.34
2022-09-07T07:10:24.508Z,20.19
2022-09-07T07:12:58.220Z,20.23
2022-09-07T07:15:28.754Z,20.27
2022-09-07T07:18:02.640Z,20.36
2022-09-07T07:20:37.806Z,20.48
2022-09-07T07:23:06.627Z,20.57
2022-09-07T07:25:35.743Z,20.68
2022-09-07T07:30:57.293Z,20.85
2022-09-07T07:33:25.925Z,20.97
2022-09-07T07:35:54.230Z,21.09
2022-09-07T07:44:00.803Z,21.38
2022-09-07T07:46:30.325Z,21.38
2022-09-07T07:48:58.725Z,21.38
2022-09-07T07:51:27.066Z,21.48
2022-09-07T07:53:55.507Z,21.59
2022-09-07T07:56:23.912Z,21.61
2022-09-07T07:58:52.576Z,21.75
2022-09-07T08:01:22.207Z,21.86
2022-09-07T08:03:50.963Z,21.95
2022-09-07T08:06:20.813Z,22.00
2022-09-07T08:08:49.290Z,21.97
2022-09-07T08:11:19.210Z,22.06
2022-09-07T08:13:49.748Z,22.15
2022-09-07T08:16:19.191Z,22.24
2022-09-07T08:18:49.358Z,22.26
2022-09-07T08:21:17.764Z,22.33
2022-09-07T08:23:45.920Z,22.35
2022-09-07T08:26:14.159Z,22.28
2022-09-07T08:28:45.621Z,22.42
2022-09-07T08:31:15.860Z,22.57
2022-09-07T08:33:44.499Z,22.61
2022-09-07T08:36:15.729Z,22.71
2022-09-07T08:38:43.831Z,22.74
2022-09-07T08:41:33.107Z,22.88
2022-09-07T08:44:04.382Z,22.93
2022-09-07T08:46:39.548Z,23.02
2022-09-07T08:49:17.407Z,23.02
2022-09-07T08:51:51.886Z,23.14
2022-09-07T08:54:20.178Z,23.30
2022-09-07T08:59:44.329Z,23.48
2022-09-07T09:02:34.895Z,23.50
2022-09-07T09:05:21.528Z,23.57
2022-09-07T09:08:05.218Z,23.60
2022-09-07T09:10:44.183Z,23.69
2022-09-07T09:13:19.255Z,23.75
2022-09-07T09:15:58.553Z,23.81
2022-09-07T09:18:40.146Z,23.86
2022-09-07T09:21:14.950Z,23.94
2022-09-07T09:23:47.930Z,24.00
2022-09-07T09:26:22.325Z,24.10
2022-09-07T09:28:50.671Z,24.16
2022-09-07T09:31:21.277Z,24.16
2022-09-07T09:34:11.358Z,24.24
2022-09-07T09:36:45.737Z,24.25
2022-09-07T09:39:28.991Z,24.39
2022-09-07T09:41:59.785Z,24.51
2022-09-07T09:44:32.876Z,24.56
2022-09-07T09:49:54.781Z,24.71
2022-09-07T09:52:30.442Z,24.80
2022-09-07T09:55:23.543Z,24.91
2022-09-07T10:04:01.503Z,25.17
2022-09-07T10:06:32.633Z,25.43
2022-09-07T10:09:02.479Z,25.56
2022-09-07T10:14:37.276Z,25.89
2022-09-07T10:17:24.887Z,26.01
2022-09-07T10:19:53.087Z,26.10
2022-09-07T10:22:40.488Z,26.25
2022-09-07T10:25:29.893Z,26.16
2022-09-07T10:28:21.161Z,26.26
2022-09-07T10:31:15.237Z,26.31
2022-09-07T10:36:45.359Z,26.47
2022-09-07T10:39:17.469Z,26.34
2022-09-07T10:41:53.434Z,26.44
2022-09-07T10:44:36.692Z,26.48
2022-09-07T10:47:13.524Z,26.50
2022-09-07T10:52:45.927Z,26.60
2022-09-07T10:55:22.362Z,26.71
2022-09-07T10:58:03.743Z,26.85
2022-09-07T11:00:42.479Z,26.77
2022-09-07T11:03:37.859Z,26.83
2022-09-07T11:06:15.580Z,27.02
2022-09-07T11:12:07.274Z,27.06
2022-09-07T11:14:42.540Z,27.15
2022-09-07T11:17:18.620Z,27.17
2022-09-07T11:19:54.279Z,27.18
2022-09-07T11:22:31.155Z,27.32
2022-09-07T11:27:57.176Z,27.55
2022-09-07T11:30:28.645Z,27.56
2022-09-07T11:33:13.572Z,27.70
2022-09-07T11:35:48.436Z,28.02
2022-09-07T11:38:25.693Z,27.85
2022-09-07T11:41:07.590Z,27.90
2022-09-07T11:43:41.399Z,28.02
2022-09-07T11:46:17.204Z,28.01
2022-09-07T11:48:52.162Z,28.17
2022-09-07T11:51:24.671Z,28.15
2022-09-07T11:53:57.193Z,28.28
2022-09-07T11:56:36.216Z,28.36
2022-09-07T11:59:22.070Z,28.63
2022-09-07T12:02:04.251Z,28.73
2022-09-07T12:04:46.688Z,28.85
2022-09-07T12:07:47.916Z,28.88
2022-09-07T12:10:49.482Z,28.73
2022-09-07T12:13:49.875Z,28.92
2022-09-07T12:16:25.061Z,28.80
2022-09-07T12:19:18.044Z,28.91
2022-09-07T12:21:55.430Z,28.82
2022-09-07T12:24:51.456Z,28.77
2022-09-07T12:27:39.714Z,28.74
2022-09-07T12:30:52.906Z,28.57
2022-09-07T12:33:39.636Z,28.79
2022-09-07T12:36:43.449Z,28.83
2022-09-07T12:39:28.524Z,28.52
2022-09-07T12:42:38.438Z,28.67
2022-09-07T12:45:43.749Z,28.88
2022-09-07T12:48:28.335Z,29.09
2022-09-07T12:51:02.011Z,29.14
2022-09-07T12:53:35.129Z,29.09
2022-09-07T12:56:28.760Z,29.25
2022-09-07T12:59:17.316Z,29.55
2022-09-07T13:01:59.206Z,29.70
2022-09-07T13:04:54.251Z,30.00
2022-09-07T13:07:37.436Z,30.01
2022-09-07T13:10:20.386Z,30.42
2022-09-07T13:12:53.157Z,30.69
2022-09-07T13:15:33.451Z,30.65
2022-09-07T13:18:03.491Z,30.81
2022-09-07T13:20:37.534Z,30.92
2022-09-07T13:23:24.070Z,31.07
2022-09-07T13:25:59.001Z,31.12
2022-09-07T13:28:35.111Z,31.24
2022-09-07T13:31:17.934Z,31.34
2022-09-07T13:33:51.270Z,31.50
2022-09-07T13:36:25.631Z,31.47
2022-09-07T13:38:55.097Z,31.82
2022-09-07T13:41:27.142Z,32.12
2022-09-07T13:44:00.789Z,32.25
2022-09-07T13:46:47.831Z,32.38
2022-09-07T13:49:55.725Z,32.43
2022-09-07T13:52:33.340Z,32.30
2022-09-07T13:55:22.653Z,32.21
2022-09-07T13:58:06.675Z,32.44
2022-09-07T14:00:36.295Z,32.72
2022-09-07T14:03:08.549Z,33.00
2022-09-07T14:05:37.330Z,33.22
2022-09-07T14:08:05.371Z,33.01
2022-09-07T14:10:33.715Z,33.00
2022-09-07T14:13:14.128Z,32.81
2022-09-07T14:15:45.081Z,32.64
2022-09-07T14:18:15.014Z,33.03
2022-09-07T14:20:45.762Z,32.79
2022-09-07T14:23:23.320Z,32.54
2022-09-07T14:26:16.398Z,32.73
2022-09-07T14:28:46.992Z,32.85
2022-09-07T14:31:18.774Z,32.91
2022-09-07T14:33:51.208Z,33.02
2022-09-07T14:36:42.404Z,32.87
2022-09-07T14:39:10.262Z,32.83
2022-09-07T14:41:40.629Z,33.14
2022-09-07T14:44:28.545Z,33.03
2022-09-07T14:46:59.756Z,32.71
2022-09-07T14:49:28.904Z,32.02
2022-09-07T14:51:57.440Z,31.87
2022-09-07T14:54:28.940Z,31.46
2022-09-07T14:57:07.036Z,31.32
2022-09-07T14:59:44.083Z,31.48
2022-09-07T15:02:36.651Z,31.65
2022-09-07T15:05:26.749Z,31.99
2022-09-07T15:07:57.814Z,32.70
2022-09-07T15:10:37.256Z,32.85
2022-09-07T15:13:07.582Z,32.84
2022-09-07T15:15:39.578Z,32.65
2022-09-07T15:18:52.480Z,32.11
2022-09-07T15:21:20.623Z,32.37
2022-09-07T15:23:53.023Z,32.40
2022-09-07T15:29:11.859Z,32.19
2022-09-07T15:31:42.554Z,31.72
2022-09-07T15:34:15.999Z,31.74
2022-09-07T15:36:48.742Z,31.45
2022-09-07T15:39:18.856Z,31.25
2022-09-07T15:41:47.059Z,30.97
2022-09-07T15:44:15.937Z,30.81
2022-09-07T15:47:43.162Z,30.43
2022-09-07T15:49:33.960Z,29.91
2022-09-07T15:52:05.792Z,29.95
2022-09-07T15:54:39.299Z,29.91
2022-09-07T15:59:56.019Z,29.72
2022-09-07T16:05:13.655Z,29.72
2022-09-07T16:10:31.768Z,29.78
2022-09-07T16:13:02.399Z,29.82
2022-09-07T16:15:31.439Z,30.01
2022-09-07T16:17:59.592Z,30.06
2022-09-07T16:20:32.098Z,30.02
2022-09-07T16:23:16.920Z,29.92
2022-09-07T16:25:56.580Z,29.81
2022-09-07T16:28:25.238Z,29.64
2022-09-07T16:30:53.462Z,29.55
2022-09-07T16:33:21.804Z,29.39
2022-09-07T16:35:59.831Z,29.30
2022-09-07T16:38:44.474Z,29.28
2022-09-07T16:41:14.645Z,29.29
2022-09-07T16:43:43.132Z,29.22
2022-09-07T16:46:14.400Z,29.01
2022-09-07T16:48:42.896Z,28.88
2022-09-07T16:51:16.393Z,28.70
2022-09-07T16:53:44.627Z,28.48
2022-09-07T16:56:16.515Z,28.20
2022-09-07T16:58:46.963Z,28.06
2022-09-07T17:01:16.372Z,28.00
2022-09-07T17:03:45.293Z,27.94
2022-09-07T17:06:15.929Z,27.87
2022-09-07T17:08:44.326Z,27.79
2022-09-07T17:11:14.239Z,27.77
2022-09-07T17:13:43.655Z,27.74
2022-09-07T17:16:13.836Z,27.61
2022-09-07T17:21:33.561Z,27.14
2022-09-07T17:24:04.170Z,27.15
2022-09-07T17:26:33.311Z,27.11
2022-09-07T17:29:01.700Z,27.14
2022-09-07T17:34:20.245Z,27.08
2022-09-07T17:36:51.502Z,26.90
2022-09-07T17:39:19.991Z,26.72
2022-09-07T17:41:48.678Z,26.59
2022-09-07T17:44:17.167Z,26.52
2022-09-07T17:46:45.382Z,26.41
2022-09-07T17:49:16.353Z,26.27
2022-09-07T17:51:45.393Z,26.34
2022-09-07T17:54:20.937Z,26.20
2022-09-07T17:56:49.204Z,26.25
2022-09-07T18:02:05.892Z,26.31
2022-09-07T18:04:35.825Z,26.28
2022-09-07T18:07:04.083Z,26.07
2022-09-07T18:09:33.564Z,25.86
2022-09-07T18:12:01.713Z,25.70
2022-09-07T18:14:30.257Z,25.64
2022-09-07T18:16:58.408Z,25.56
2022-09-07T18:19:26.449Z,25.43
2022-09-07T18:21:57.250Z,25.37
2022-09-07T18:24:25.950Z,25.52
2022-09-07T18:26:55.616Z,25.48
2022-09-07T18:29:29.318Z,25.38
2022-09-07T18:31:59.743Z,25.20
2022-09-07T18:34:28.816Z,25.21
2022-09-07T18:36:58.233Z,25.14
2022-09-07T18:39:26.588Z,25.13
2022-09-07T18:41:56.447Z,25.08
2022-09-07T18:47:21.455Z,24.85
2022-09-07T18:49:51.367Z,24.79
2022-09-07T18:55:08.634Z,24.71
2022-09-07T18:57:38.352Z,24.61
2022-09-07T19:00:09.002Z,24.65
2022-09-07T19:02:37.459Z,24.65
2022-09-07T19:07:54.359Z,24.68
2022-09-07T19:10:23.172Z,24.73
2022-09-07T19:12:52.658Z,24.69
2022-09-07T19:15:21.256Z,24.44
2022-09-07T19:17:49.322Z,24.35
2022-09-07T19:20:17.521Z,24.19
2022-09-07T19:22:45.568Z,24.03
2022-09-07T19:25:13.572Z,24.06
2022-09-07T19:27:41.593Z,24.11
2022-09-07T19:30:12.133Z,24.07
2022-09-07T19:32:40.445Z,24.04
2022-09-07T19:35:09.040Z,23.98
2022-09-07T19:37:37.063Z,23.91
2022-09-07T19:40:05.720Z,24.05
2022-09-07T19:42:33.805Z,24.14
2022-09-07T19:45:01.842Z,24.20
2022-09-07T19:47:31.561Z,24.22
2022-09-07T19:49:59.666Z,24.16
2022-09-07T19:52:27.805Z,24.18
2022-09-07T19:54:57.134Z,24.07
2022-09-07T19:57:25.285Z,24.06
2022-09-07T19:59:56.678Z,23.97
2022-09-07T20:02:24.781Z,23.90
2022-09-07T20:04:54.358Z,24.01
2022-09-07T20:07:22.562Z,24.04
2022-09-07T20:09:52.371Z,24.01
2022-09-07T20:12:20.393Z,23.98
2022-09-07T20:14:48.416Z,23.83
2022-09-07T20:17:16.437Z,23.85
2022-09-07T20:19:44.443Z,23.85
2022-09-07T20:22:13.893Z,23.79
2022-09-07T20:24:41.890Z,23.67
2022-09-07T20:27:10.586Z,23.53
2022-09-07T20:29:38.608Z,23.45
2022-09-07T20:32:06.864Z,23.29
2022-09-07T20:34:34.925Z,23.35
2022-09-07T20:37:03.225Z,23.38
2022-09-07T20:39:36.985Z,23.36
2022-09-07T20:42:07.771Z,23.20
2022-09-07T20:44:35.851Z,23.13
2022-09-07T20:47:04.008Z,23.12
2022-09-07T20:49:32.109Z,23.11
2022-09-07T20:52:00.199Z,23.11
2022-09-07T20:54:28.230Z,23.05
2022-09-07T20:57:00.970Z,22.96
2022-09-07T20:59:31.603Z,22.89
2022-09-07T21:01:59.716Z,22.82
2022-09-07T21:04:27.986Z,22.90
2022-09-07T21:06:58.060Z,22.86
2022-09-07T21:09:26.074Z,22.81
2022-09-07T21:11:57.102Z,22.52
2022-09-07T21:14:26.793Z,22.56
2022-09-07T21:16:54.805Z,22.46
2022-09-07T21:19:22.808Z,22.36
2022-09-07T21:21:50.851Z,22.28
2022-09-07T21:24:20.837Z,22.21
2022-09-07T21:26:49.514Z,22.14
2022-09-07T21:29:19.150Z,22.17
2022-09-07T21:31:49.300Z,22.26
2022-09-07T21:34:18.230Z,22.33
2022-09-07T21:36:46.607Z,22.38
2022-09-07T21:39:14.882Z,22.40
2022-09-07T21:41:43.580Z,22.44
2022-09-07T21:44:13.838Z,22.42
2022-09-07T21:46:42.821Z,22.39
2022-09-07T21:49:12.812Z,22.38
2022-09-07T21:51:40.828Z,22.38
2022-09-07T21:54:09.173Z,22.32
2022-09-07T21:56:37.711Z,22.33
2022-09-07T21:59:06.619Z,22.35
2022-09-07T22:01:34.855Z,22.35
2022-09-07T22:04:05.506Z,22.37
2022-09-07T22:06:35.545Z,22.27
2022-09-07T22:09:05.140Z,22.10
2022-09-07T22:11:33.378Z,21.98
2022-09-07T22:14:03.906Z,22.01
2022-09-07T22:16:33.107Z,22.03
2022-09-07T22:19:01.699Z,22.07
2022-09-07T22:21:31.518Z,22.07
2022-09-07T22:24:03.464Z,22.09
2022-09-07T22:26:33.480Z,22.09
2022-09-07T22:29:01.925Z,22.09
2022-09-07T22:31:32.625Z,22.01
2022-09-07T22:34:02.563Z,21.83
2022-09-07T22:36:32.433Z,21.76
2022-09-07T22:39:04.205Z,21.70
2022-09-07T22:41:34.423Z,21.69
2022-09-07T22:44:02.680Z,21.74
2022-09-07T22:46:32.384Z,21.74
2022-09-07T22:49:00.539Z,21.78
2022-09-07T22:51:28.914Z,21.70
2022-09-07T22:53:57.447Z,21.58
2022-09-07T22:56:28.874Z,21.41
2022-09-07T22:58:58.565Z,21.33
2022-09-07T23:01:27.837Z,21.19
2022-09-07T23:03:56.411Z,21.12
2022-09-07T23:06:26.664Z,21.06
2022-09-07T23:08:56.471Z,20.98
2022-09-07T23:11:26.828Z,21.04
2022-09-07T23:13:56.891Z,21.08
2022-09-07T23:16:26.505Z,21.01
2022-09-07T23:18:54.710Z,20.92
2022-09-07T23:21:23.039Z,20.92
2022-09-07T23:23:52.372Z,20.88
2022-09-07T23:26:21.401Z,20.89
2022-09-07T23:28:53.939Z,20.86
2022-09-07T23:31:22.862Z,20.84
2022-09-07T23:33:51.344Z,20.90
2022-09-07T23:36:20.412Z,20.90
2022-09-07T23:38:48.958Z,20.84
2022-09-07T23:41:18.440Z,20.77
2022-09-07T23:43:46.666Z,20.72
2022-09-07T23:46:16.702Z,20.76
2022-09-07T23:48:45.113Z,20.68
2022-09-07T23:51:14.046Z,20.59
2022-09-07T23:53:42.469Z,20.54
2022-09-07T23:56:10.639Z,20.49
2022-09-07T23:58:38.837Z,20.55
